sensor_id;sensor_type;location;lat;lon;timestamp;pressure;altitude;pressure_sealevel;temperature;humidity
78223;BME280;67497;53.058;21.618;2023-03-23T00:00:37;99712.69;;;19.69;43.58
78223;BME280;67497;53.058;21.618;2023-03-23T00:02:39;99706.50;;;19.67;43.60
78223;BME280;67497;53.058;21.618;2023-03-23T00:04:39;99701.16;;;19.66;43.56
78223;BME280;67497;53.058;21.618;2023-03-23T00:06:40;99702.00;;;19.66;43.50
78223;BME280;67497;53.058;21.618;2023-03-23T00:08:40;99696.47;;;19.66;43.04
78223;BME280;67497;53.058;21.618;2023-03-23T00:10:50;99702.00;;;19.66;43.50
78223;BME280;67497;53.058;21.618;2023-03-23T00:12:56;99704.78;;;19.66;43.49
78223;BME280;67497;53.058;21.618;2023-03-23T00:14:57;99707.56;;;19.66;43.47
78223;BME280;67497;53.058;21.618;2023-03-23T00:16:58;99701.22;;;19.59;43.34
78223;BME280;67497;53.058;21.618;2023-03-23T00:19:01;99703.94;;;19.66;43.43
78223;BME280;67497;53.058;21.618;2023-03-23T00:21:02;99706.34;;;19.62;43.40
78223;BME280;67497;53.058;21.618;2023-03-23T00:23:04;99702.06;;;19.60;43.36
78223;BME280;67497;53.058;21.618;2023-03-23T00:25:05;99707.41;;;19.61;43.42
78223;BME280;67497;53.058;21.618;2023-03-23T00:27:06;99710.19;;;19.61;43.32
78223;BME280;67497;53.058;21.618;2023-03-23T00:29:11;99702.06;;;19.60;43.26
78223;BME280;67497;53.058;21.618;2023-03-23T00:31:13;99702.28;;;19.58;43.44
78223;BME280;67497;53.058;21.618;2023-03-23T00:33:14;99698.28;;;19.54;43.05
78223;BME280;67497;53.058;21.618;2023-03-23T00:35:17;99690.78;;;19.55;43.72
78223;BME280;67497;53.058;21.618;2023-03-23T00:37:17;99683.97;;;19.51;43.28
78223;BME280;67497;53.058;21.618;2023-03-23T00:39:19;99693.19;;;19.51;43.19
78223;BME280;67497;53.058;21.618;2023-03-23T00:41:19;99689.75;;;19.49;43.48
78223;BME280;67497;53.058;21.618;2023-03-23T00:43:20;99695.31;;;19.49;43.42
78223;BME280;67497;53.058;21.618;2023-03-23T00:45:24;99686.34;;;19.47;43.16
78223;BME280;67497;53.058;21.618;2023-03-23T00:47:25;99690.22;;;19.46;43.27
78223;BME280;67497;53.058;21.618;2023-03-23T00:49:26;99684.19;;;19.49;43.15
78223;BME280;67497;53.058;21.618;2023-03-23T00:51:27;99680.19;;;19.45;43.23
78223;BME280;67497;53.058;21.618;2023-03-23T00:53:27;99674.63;;;19.45;43.31
78223;BME280;67497;53.058;21.618;2023-03-23T00:55:28;99673.56;;;19.46;43.23
78223;BME280;67497;53.058;21.618;2023-03-23T00:57:30;99666.28;;;19.45;43.36
78223;BME280;67497;53.058;21.618;2023-03-23T00:59:31;99660.75;;;19.45;43.37
78223;BME280;67497;53.058;21.618;2023-03-23T01:01:32;99667.75;;;19.48;43.46
78223;BME280;67497;53.058;21.618;2023-03-23T01:03:33;99671.84;;;19.45;43.40
78223;BME280;67497;53.058;21.618;2023-03-23T01:05:36;99652.03;;;19.35;43.44
78223;BME280;67497;53.058;21.618;2023-03-23T01:07:37;99671.59;;;19.47;43.44
78223;BME280;67497;53.058;21.618;2023-03-23T01:09:38;99669.69;;;19.47;43.50
78223;BME280;67497;53.058;21.618;2023-03-23T01:11:45;99664.13;;;19.47;43.26
78223;BME280;67497;53.058;21.618;2023-03-23T01:13:46;99665.84;;;19.48;43.45
78223;BME280;67497;53.058;21.618;2023-03-23T01:15:47;99655.19;;;19.45;43.37
78223;BME280;67497;53.058;21.618;2023-03-23T01:17:47;99655.19;;;19.45;43.58
78223;BME280;67497;53.058;21.618;2023-03-23T01:19:48;99653.88;;;19.48;43.39
78223;BME280;67497;53.058;21.618;2023-03-23T01:21:49;99646.00;;;19.45;43.12
78223;BME280;67497;53.058;21.618;2023-03-23T01:23:49;99646.59;;;19.47;43.42
78223;BME280;67497;53.058;21.618;2023-03-23T01:25:50;99638.50;;;19.45;43.26
78223;BME280;67497;53.058;21.618;2023-03-23T01:27:52;99641.69;;;19.49;43.26
78223;BME280;67497;53.058;21.618;2023-03-23T01:29:53;99648.56;;;19.46;43.37
78223;BME280;67497;53.058;21.618;2023-03-23T01:31:53;99635.72;;;19.45;43.11
78223;BME280;67497;53.058;21.618;2023-03-23T01:33:55;99642.75;;;19.48;43.42
78223;BME280;67497;53.058;21.618;2023-03-23T01:35:57;99647.47;;;19.47;43.22
78223;BME280;67497;53.058;21.618;2023-03-23T01:37:57;99639.38;;;19.46;43.23
78223;BME280;67497;53.058;21.618;2023-03-23T01:39:58;99645.13;;;19.44;43.21
78223;BME280;67497;53.058;21.618;2023-03-23T01:41:58;99628.91;;;19.41;43.25
78223;BME280;67497;53.058;21.618;2023-03-23T01:44:06;99634.47;;;19.41;43.16
78223;BME280;67497;53.058;21.618;2023-03-23T01:46:07;99627.66;;;19.37;43.11
78223;BME280;67497;53.058;21.618;2023-03-23T01:48:18;99636.44;;;19.34;43.15
78223;BME280;67497;53.058;21.618;2023-03-23T01:50:23;99631.13;;;19.33;42.98
78223;BME280;67497;53.058;21.618;2023-03-23T01:52:27;99626.84;;;19.30;43.06
78223;BME280;67497;53.058;21.618;2023-03-23T01:54:29;99626.84;;;19.30;43.11
78223;BME280;67497;53.058;21.618;2023-03-23T01:56:36;99624.53;;;19.27;43.13
78223;BME280;67497;53.058;21.618;2023-03-23T01:58:42;99618.13;;;19.27;43.05
78223;BME280;67497;53.058;21.618;2023-03-23T02:00:43;99614.94;;;19.23;43.21
78223;BME280;67497;53.058;21.618;2023-03-23T02:02:45;99614.94;;;19.23;43.20
78223;BME280;67497;53.058;21.618;2023-03-23T02:04:47;99603.22;;;19.21;42.88
78223;BME280;67497;53.058;21.618;2023-03-23T02:06:47;99599.34;;;19.22;43.17
78223;BME280;67497;53.058;21.618;2023-03-23T02:08:49;99592.81;;;19.17;43.29
78223;BME280;67497;53.058;21.618;2023-03-23T02:10:51;99598.13;;;19.18;43.13
78223;BME280;67497;53.058;21.618;2023-03-23T02:12:51;99593.00;;;19.15;43.33
78223;BME280;67497;53.058;21.618;2023-03-23T02:14:52;99597.25;;;19.18;43.19
78223;BME280;67497;53.058;21.618;2023-03-23T02:17:09;99600.28;;;19.16;43.25
78223;BME280;67497;53.058;21.618;2023-03-23T02:30:54;99563.53;;;19.14;43.23
78223;BME280;67497;53.058;21.618;2023-03-23T02:33:32;99565.69;;;19.12;43.31
78223;BME280;67497;53.058;21.618;2023-03-23T02:35:37;99562.31;;;19.10;43.44
78223;BME280;67497;53.058;21.618;2023-03-23T02:37:46;99555.03;;;19.09;43.18
78223;BME280;67497;53.058;21.618;2023-03-23T02:40:20;99556.75;;;19.10;43.20
78223;BME280;67497;53.058;21.618;2023-03-23T02:42:26;99558.91;;;19.08;43.16
78223;BME280;67497;53.058;21.618;2023-03-23T02:44:31;99551.44;;;19.08;43.42
78223;BME280;67497;53.058;21.618;2023-03-23T02:46:34;99558.66;;;19.09;43.42
78223;BME280;67497;53.058;21.618;2023-03-23T02:48:36;99562.75;;;19.07;43.46
78223;BME280;67497;53.058;21.618;2023-03-23T02:50:40;99564.47;;;19.08;43.33
78223;BME280;67497;53.058;21.618;2023-03-23T02:52:44;99570.47;;;19.05;43.34
78223;BME280;67497;53.058;21.618;2023-03-23T02:54:47;99563.63;;;19.07;43.29
78223;BME280;67497;53.058;21.618;2023-03-23T02:56:49;99568.75;;;19.04;43.24
78223;BME280;67497;53.058;21.618;2023-03-23T02:58:51;99570.47;;;19.05;43.25
78223;BME280;67497;53.058;21.618;2023-03-23T03:00:53;99561.53;;;19.03;43.27
78223;BME280;67497;53.058;21.618;2023-03-23T03:02:57;99561.97;;;19.00;43.03
78223;BME280;67497;53.058;21.618;2023-03-23T03:10:06;99571.97;;;19.01;43.29
78223;BME280;67497;53.058;21.618;2023-03-23T03:12:20;99562.41;;;18.97;43.24
78223;BME280;67497;53.058;21.618;2023-03-23T03:14:37;99570.50;;;18.98;43.43
78223;BME280;67497;53.058;21.618;2023-03-23T03:17:18;99573.53;;;18.97;43.25
78223;BME280;67497;53.058;21.618;2023-03-23T03:19:33;99570.97;;;18.95;43.19
78223;BME280;67497;53.058;21.618;2023-03-23T03:21:39;99569.28;;;18.94;43.16
78223;BME280;67497;53.058;21.618;2023-03-23T03:23:44;99566.09;;;18.91;43.29
78223;BME280;67497;53.058;21.618;2023-03-23T03:25:46;99568.88;;;18.91;43.27
78223;BME280;67497;53.058;21.618;2023-03-23T03:27:51;99568.00;;;18.90;43.08
78223;BME280;67497;53.058;21.618;2023-03-23T03:29:55;99558.22;;;18.88;43.30
78223;BME280;67497;53.058;21.618;2023-03-23T03:32:02;99562.25;;;18.92;43.47
78223;BME280;67497;53.058;21.618;2023-03-23T03:34:06;99559.47;;;18.92;43.38
78223;BME280;67497;53.058;21.618;2023-03-23T03:36:07;99554.38;;;18.89;43.35
78223;BME280;67497;53.058;21.618;2023-03-23T03:38:14;99550.97;;;18.87;43.33
78223;BME280;67497;53.058;21.618;2023-03-23T03:40:17;99559.69;;;18.90;43.34
78223;BME280;67497;53.058;21.618;2023-03-23T03:42:18;99550.50;;;18.90;43.43
78223;BME280;67497;53.058;21.618;2023-03-23T03:44:19;99537.56;;;18.84;43.39
78223;BME280;67497;53.058;21.618;2023-03-23T03:46:20;99543.28;;;18.89;43.52
78223;BME280;67497;53.058;21.618;2023-03-23T03:48:21;99540.94;;;18.86;43.55
78223;BME280;67497;53.058;21.618;2023-03-23T03:50:21;99537.09;;;18.87;43.29
78223;BME280;67497;53.058;21.618;2023-03-23T03:52:22;99531.56;;;18.87;43.41
78223;BME280;67497;53.058;21.618;2023-03-23T03:54:22;99530.69;;;18.86;43.50
78223;BME280;67497;53.058;21.618;2023-03-23T03:56:23;99528.53;;;18.88;43.26
78223;BME280;67497;53.058;21.618;2023-03-23T03:58:24;99528.78;;;18.87;43.41
78223;BME280;67497;53.058;21.618;2023-03-23T04:00:25;99520.66;;;18.85;43.40
78223;BME280;67497;53.058;21.618;2023-03-23T04:02:25;99527.91;;;18.86;43.46
78223;BME280;67497;53.058;21.618;2023-03-23T04:04:26;99527.91;;;18.86;43.25
78223;BME280;67497;53.058;21.618;2023-03-23T04:06:27;99519.81;;;18.85;43.21
78223;BME280;67497;53.058;21.618;2023-03-23T04:08:28;99530.91;;;18.85;43.55
78223;BME280;67497;53.058;21.618;2023-03-23T04:10:30;99527.06;;;18.86;43.20
78223;BME280;67497;53.058;21.618;2023-03-23T04:12:31;99536.44;;;18.85;43.43
78223;BME280;67497;53.058;21.618;2023-03-23T04:14:32;99539.47;;;18.83;43.34
78223;BME280;67497;53.058;21.618;2023-03-23T04:16:33;99532.22;;;18.82;43.33
78223;BME280;67497;53.058;21.618;2023-03-23T04:18:35;99535.22;;;18.81;43.33
78223;BME280;67497;53.058;21.618;2023-03-23T04:20:35;99536.53;;;18.78;43.25
78223;BME280;67497;53.058;21.618;2023-03-23T04:22:37;99535.66;;;18.78;43.38
78223;BME280;67497;53.058;21.618;2023-03-23T04:24:38;99529.25;;;18.77;43.37
78223;BME280;67497;53.058;21.618;2023-03-23T04:26:38;99535.66;;;18.78;43.21
78223;BME280;67497;53.058;21.618;2023-03-23T04:28:40;99523.31;;;18.74;43.23
78223;BME280;67497;53.058;21.618;2023-03-23T04:30:41;99512.44;;;18.72;43.36
78223;BME280;67497;53.058;21.618;2023-03-23T04:32:43;99522.25;;;18.75;43.40
78223;BME280;67497;53.058;21.618;2023-03-23T04:34:44;99526.06;;;18.74;43.19
78223;BME280;67497;53.058;21.618;2023-03-23T04:36:44;99520.78;;;18.72;43.15
78223;BME280;67497;53.058;21.618;2023-03-23T04:38:46;99516.53;;;18.70;43.31
78223;BME280;67497;53.058;21.618;2023-03-23T04:40:48;99514.38;;;18.72;43.43
78223;BME280;67497;53.058;21.618;2023-03-23T04:42:51;99517.38;;;18.70;43.45
78223;BME280;67497;53.058;21.618;2023-03-23T04:44:52;99509.25;;;18.69;43.16
78223;BME280;67497;53.058;21.618;2023-03-23T04:46:55;99510.53;;;18.73;43.23
78223;BME280;67497;53.058;21.618;2023-03-23T04:48:57;99505.19;;;18.71;43.39
78223;BME280;67497;53.058;21.618;2023-03-23T04:51:03;99508.66;;;18.67;43.34
78223;BME280;67497;53.058;21.618;2023-03-23T04:53:04;99506.03;;;18.72;43.21
78223;BME280;67497;53.058;21.618;2023-03-23T04:55:06;99499.63;;;18.71;43.41
78223;BME280;67497;53.058;21.618;2023-03-23T04:57:07;99498.16;;;18.69;43.37
78223;BME280;67497;53.058;21.618;2023-03-23T04:59:08;99509.25;;;18.69;43.45
78223;BME280;67497;53.058;21.618;2023-03-23T05:01:08;99515.91;;;18.68;43.47
78223;BME280;67497;53.058;21.618;2023-03-23T05:03:10;99507.09;;;18.71;43.46
78223;BME280;67497;53.058;21.618;2023-03-23T05:05:13;99507.09;;;18.71;43.40
78223;BME280;67497;53.058;21.618;2023-03-23T05:07:14;99507.09;;;18.71;43.66
78223;BME280;67497;53.058;21.618;2023-03-23T05:09:15;99502.03;;;18.68;43.43
78223;BME280;67497;53.058;21.618;2023-03-23T05:11:16;99483.66;;;18.67;43.40
78223;BME280;67497;53.058;21.618;2023-03-23T05:13:16;99482.63;;;18.68;43.53
78223;BME280;67497;53.058;21.618;2023-03-23T05:15:17;99487.06;;;18.69;43.43
78223;BME280;67497;53.058;21.618;2023-03-23T05:17:17;99490.94;;;18.68;43.42
78223;BME280;67497;53.058;21.618;2023-03-23T05:19:18;99487.06;;;18.69;43.33
78223;BME280;67497;53.058;21.618;2023-03-23T05:21:19;99500.31;;;18.67;43.31
78223;BME280;67497;53.058;21.618;2023-03-23T05:23:21;99499.47;;;18.66;43.26
78223;BME280;67497;53.058;21.618;2023-03-23T05:25:24;99489.47;;;18.65;43.42
78223;BME280;67497;53.058;21.618;2023-03-23T05:27:25;99493.50;;;18.63;43.26
78223;BME280;67497;53.058;21.618;2023-03-23T05:29:30;99492.25;;;18.65;43.36
78223;BME280;67497;53.058;21.618;2023-03-23T05:31:30;99490.72;;;18.63;43.31
78223;BME280;67497;53.058;21.618;2023-03-23T05:33:32;99501.22;;;18.61;43.34
78223;BME280;67497;53.058;21.618;2023-03-23T05:35:32;99497.38;;;18.62;43.62
78223;BME280;67497;53.058;21.618;2023-03-23T05:37:33;99501.22;;;18.61;43.45
78223;BME280;67497;53.058;21.618;2023-03-23T05:39:33;99505.91;;;18.60;43.39
78223;BME280;67497;53.058;21.618;2023-03-23T05:41:34;99507.84;;;18.60;43.51
78223;BME280;67497;53.058;21.618;2023-03-23T05:43:35;99492.88;;;18.61;43.38
78223;BME280;67497;53.058;21.618;2023-03-23T05:45:35;99494.44;;;18.57;43.53
78223;BME280;67497;53.058;21.618;2023-03-23T05:47:36;99503.59;;;18.57;43.51
78223;BME280;67497;53.058;21.618;2023-03-23T05:49:36;99510.63;;;18.60;43.53
78223;BME280;67497;53.058;21.618;2023-03-23T05:51:38;99513.63;;;18.58;43.47
78223;BME280;67497;53.058;21.618;2023-03-23T05:53:38;99522.56;;;18.60;43.54
78223;BME280;67497;53.058;21.618;2023-03-23T05:55:39;99518.09;;;18.59;43.49
78223;BME280;67497;53.058;21.618;2023-03-23T05:57:39;99503.38;;;18.59;43.53
78223;BME280;67497;53.058;21.618;2023-03-23T05:59:40;99514.22;;;18.60;43.53
78223;BME280;67497;53.058;21.618;2023-03-23T06:01:40;99516.19;;;18.60;43.58
78223;BME280;67497;53.058;21.618;2023-03-23T06:03:41;99514.47;;;18.59;43.58
78223;BME280;67497;53.058;21.618;2023-03-23T06:05:45;99521.25;;;18.63;43.73
78223;BME280;67497;53.058;21.618;2023-03-23T06:07:45;99514.03;;;18.62;43.57
78223;BME280;67497;53.058;21.618;2023-03-23T06:09:46;99504.84;;;18.61;43.39
78223;BME280;67497;53.058;21.618;2023-03-23T06:11:47;99502.94;;;18.62;43.74
78223;BME280;67497;53.058;21.618;2023-03-23T06:13:50;99506.75;;;18.61;43.66
78223;BME280;67497;53.058;21.618;2023-03-23T06:15:55;99512.94;;;18.63;43.80
78223;BME280;67497;53.058;21.618;2023-03-23T06:17:58;99509.09;;;18.64;43.78
78223;BME280;67497;53.058;21.618;2023-03-23T06:19:59;99502.94;;;18.62;43.53
78223;BME280;67497;53.058;21.618;2023-03-23T06:22:00;99518.19;;;18.71;43.47
78223;BME280;67497;53.058;21.618;2023-03-23T06:24:01;99513.91;;;18.75;43.22
78223;BME280;67497;53.058;21.618;2023-03-23T06:26:07;99518.13;;;18.84;43.18
78223;BME280;67497;53.058;21.618;2023-03-23T06:28:08;99521.50;;;18.86;42.98
78223;BME280;67497;53.058;21.618;2023-03-23T06:30:10;99517.03;;;18.85;42.84
78223;BME280;67497;53.058;21.618;2023-03-23T06:32:11;99518.94;;;18.84;43.11
78223;BME280;67497;53.058;21.618;2023-03-23T06:34:13;99525.81;;;18.82;42.95
78223;BME280;67497;53.058;21.618;2023-03-23T06:36:14;99520.25;;;18.82;43.06
78223;BME280;67497;53.058;21.618;2023-03-23T06:38:15;99519.88;;;18.78;43.11
78223;BME280;67497;53.058;21.618;2023-03-23T06:40:16;99531.84;;;18.79;43.03
78223;BME280;67497;53.058;21.618;2023-03-23T06:42:18;99523.72;;;18.77;43.19
78223;BME280;67497;53.058;21.618;2023-03-23T06:44:19;99532.47;;;18.74;43.23
78223;BME280;67497;53.058;21.618;2023-03-23T06:46:19;99534.41;;;18.74;43.26
78223;BME280;67497;53.058;21.618;2023-03-23T06:48:20;99531.00;;;18.72;43.17
78223;BME280;67497;53.058;21.618;2023-03-23T06:50:21;99523.75;;;18.71;43.24
78223;BME280;67497;53.058;21.618;2023-03-23T06:52:22;99541.44;;;18.76;43.09
78223;BME280;67497;53.058;21.618;2023-03-23T06:54:23;99541.44;;;18.76;43.22
78223;BME280;67497;53.058;21.618;2023-03-23T06:56:24;99540.97;;;18.79;43.22
78223;BME280;67497;53.058;21.618;2023-03-23T06:58:25;99548.66;;;18.84;42.89
78223;BME280;67497;53.058;21.618;2023-03-23T07:00:25;99537.94;;;18.87;42.66
78223;BME280;67497;53.058;21.618;2023-03-23T07:02:26;99546.66;;;18.91;42.90
78223;BME280;67497;53.058;21.618;2023-03-23T07:04:26;99545.53;;;18.98;42.60
78223;BME280;67497;53.058;21.618;2023-03-23T07:06:27;99548.72;;;19.02;42.68
78223;BME280;67497;53.058;21.618;2023-03-23T07:08:27;99548.66;;;19.08;42.56
78223;BME280;67497;53.058;21.618;2023-03-23T07:10:28;99532.47;;;19.05;42.27
78223;BME280;67497;53.058;21.618;2023-03-23T07:12:29;99544.28;;;19.19;42.60
78223;BME280;67497;53.058;21.618;2023-03-23T07:14:31;99545.97;;;19.20;42.50
78223;BME280;67497;53.058;21.618;2023-03-23T07:16:31;99547.22;;;19.24;42.54
78223;BME280;67497;53.058;21.618;2023-03-23T07:18:32;99554.88;;;19.29;42.43
78223;BME280;67497;53.058;21.618;2023-03-23T07:20:33;99551.84;;;19.30;42.38
78223;BME280;67497;53.058;21.618;2023-03-23T07:22:34;99548.00;;;19.31;42.10
78223;BME280;67497;53.058;21.618;2023-03-23T07:24:34;99543.72;;;19.35;42.39
78223;BME280;67497;53.058;21.618;2023-03-23T07:26:35;99545.22;;;19.38;42.76
78223;BME280;67497;53.058;21.618;2023-03-23T07:28:36;99548.84;;;19.38;42.37
78223;BME280;67497;53.058;21.618;2023-03-23T07:30:37;99540.28;;;19.40;42.27
78223;BME280;67497;53.058;21.618;2023-03-23T07:32:38;99543.03;;;19.40;42.29
78223;BME280;67497;53.058;21.618;2023-03-23T07:34:38;99545.38;;;19.43;42.19
78223;BME280;67497;53.058;21.618;2023-03-23T07:36:39;99540.28;;;19.40;42.18
78223;BME280;67497;53.058;21.618;2023-03-23T07:38:39;99546.69;;;19.40;42.38
78223;BME280;67497;53.058;21.618;2023-03-23T07:40:40;99543.28;;;19.38;42.18
78223;BME280;67497;53.058;21.618;2023-03-23T07:42:42;99537.06;;;19.36;42.30
78223;BME280;67497;53.058;21.618;2023-03-23T07:44:43;99542.63;;;19.36;42.36
78223;BME280;67497;53.058;21.618;2023-03-23T07:46:44;99539.84;;;19.36;42.32
78223;BME280;67497;53.058;21.618;2023-03-23T07:48:44;99544.78;;;19.34;42.30
78223;BME280;67497;53.058;21.618;2023-03-23T07:50:45;99547.56;;;19.34;42.23
78223;BME280;67497;53.058;21.618;2023-03-23T07:52:46;99545.03;;;19.33;42.30
78223;BME280;67497;53.058;21.618;2023-03-23T07:54:47;99534.72;;;19.33;42.42
78223;BME280;67497;53.058;21.618;2023-03-23T07:56:47;99544.63;;;19.29;42.34
78223;BME280;67497;53.058;21.618;2023-03-23T07:58:48;99540.13;;;19.28;42.48
78223;BME280;67497;53.058;21.618;2023-03-23T08:00:49;99541.22;;;19.27;42.26
78223;BME280;67497;53.058;21.618;2023-03-23T08:02:55;99535.66;;;19.27;42.18
78223;BME280;67497;53.058;21.618;2023-03-23T08:04:57;99541.22;;;19.27;42.36
78223;BME280;67497;53.058;21.618;2023-03-23T08:07:00;99531.03;;;19.21;42.49
78223;BME280;67497;53.058;21.618;2023-03-23T08:09:01;99536.13;;;19.24;42.64
78223;BME280;67497;53.058;21.618;2023-03-23T08:11:06;99533.97;;;19.26;42.73
78223;BME280;67497;53.058;21.618;2023-03-23T08:13:07;99532.69;;;19.22;42.76
78223;BME280;67497;53.058;21.618;2023-03-23T08:15:10;99537.81;;;19.25;42.84
78223;BME280;67497;53.058;21.618;2023-03-23T08:17:14;99533.34;;;19.24;43.12
78223;BME280;67497;53.058;21.618;2023-03-23T08:19:15;99538.66;;;19.26;43.02
78223;BME280;67497;53.058;21.618;2023-03-23T08:21:15;99527.78;;;19.24;43.69
78223;BME280;67497;53.058;21.618;2023-03-23T08:23:16;99516.91;;;19.23;43.74
78223;BME280;67497;53.058;21.618;2023-03-23T08:25:16;99519.00;;;19.27;44.00
78223;BME280;67497;53.058;21.618;2023-03-23T08:27:18;99523.63;;;19.33;44.75
78223;BME280;67497;53.058;21.618;2023-03-23T08:29:19;99518.28;;;19.38;45.78
78223;BME280;67497;53.058;21.618;2023-03-23T08:31:20;99509.72;;;19.40;45.88
78223;BME280;67497;53.058;21.618;2023-03-23T08:33:20;99513.50;;;19.45;46.28
78223;BME280;67497;53.058;21.618;2023-03-23T08:35:22;99510.28;;;19.48;45.84
78223;BME280;67497;53.058;21.618;2023-03-23T08:37:23;99502.53;;;19.50;45.59
78223;BME280;67497;53.058;21.618;2023-03-23T08:39:23;99505.94;;;19.52;45.64
78223;BME280;67497;53.058;21.618;2023-03-23T08:41:25;99499.06;;;19.55;45.16
78223;BME280;67497;53.058;21.618;2023-03-23T08:43:26;99498.59;;;19.58;44.53
78223;BME280;67497;53.058;21.618;2023-03-23T08:45:27;99501.16;;;19.59;44.76
78223;BME280;67497;53.058;21.618;2023-03-23T08:47:28;99491.72;;;19.60;44.67
78223;BME280;67497;53.058;21.618;2023-03-23T08:49:29;99501.69;;;19.68;43.99
78223;BME280;67497;53.058;21.618;2023-03-23T08:51:33;99509.56;;;19.71;45.42
78223;BME280;67497;53.058;21.618;2023-03-23T08:53:33;99491.22;;;19.70;46.13
78223;BME280;67497;53.058;21.618;2023-03-23T08:55:34;99495.44;;;19.73;46.17
78223;BME280;67497;53.058;21.618;2023-03-23T08:57:35;99497.13;;;19.74;45.93
78223;BME280;67497;53.058;21.618;2023-03-23T08:59:36;99491.56;;;19.74;46.05
78223;BME280;67497;53.058;21.618;2023-03-23T09:01:36;99495.59;;;19.78;46.71
78223;BME280;67497;53.058;21.618;2023-03-23T09:03:37;99489.66;;;19.74;46.19
78223;BME280;67497;53.058;21.618;2023-03-23T09:05:39;99490.50;;;19.75;46.12
78223;BME280;67497;53.058;21.618;2023-03-23T09:07:48;99492.81;;;19.78;46.19
78223;BME280;67497;53.058;21.618;2023-03-23T09:09:48;99485.78;;;19.75;45.94
78223;BME280;67497;53.058;21.618;2023-03-23T09:11:49;99487.00;;;19.79;46.00
78223;BME280;67497;53.058;21.618;2023-03-23T09:13:49;99475.06;;;19.79;46.75
78223;BME280;67497;53.058;21.618;2023-03-23T09:15:50;99469.50;;;19.79;46.35
78223;BME280;67497;53.058;21.618;2023-03-23T09:17:52;99473.50;;;19.83;46.00
78223;BME280;67497;53.058;21.618;2023-03-23T09:19:54;99464.56;;;19.81;46.51
78223;BME280;67497;53.058;21.618;2023-03-23T09:21:55;99457.91;;;19.82;47.16
78223;BME280;67497;53.058;21.618;2023-03-23T09:23:56;99461.47;;;19.89;46.17
78223;BME280;67497;53.058;21.618;2023-03-23T09:26:03;99454.59;;;19.91;47.18
78223;BME280;67497;53.058;21.618;2023-03-23T09:28:03;99462.06;;;19.91;48.22
78223;BME280;67497;53.058;21.618;2023-03-23T09:30:08;99458.44;;;19.90;47.24
78223;BME280;67497;53.058;21.618;2023-03-23T09:32:10;99465.44;;;19.93;45.83
78223;BME280;67497;53.058;21.618;2023-03-23T09:34:14;99463.53;;;19.93;46.31
78223;BME280;67497;53.058;21.618;2023-03-23T09:36:15;99463.66;;;19.98;45.96
78223;BME280;67497;53.058;21.618;2023-03-23T09:38:17;99471.53;;;20.01;46.76
78223;BME280;67497;53.058;21.618;2023-03-23T09:40:20;99466.84;;;20.02;46.55
78223;BME280;67497;53.058;21.618;2023-03-23T09:53:42;99464.13;;;19.95;45.69
78223;BME280;67497;53.058;21.618;2023-03-23T09:55:43;99465.69;;;19.91;45.94
78223;BME280;67497;53.058;21.618;2023-03-23T10:00:11;99462.06;;;19.91;45.77
78223;BME280;67497;53.058;21.618;2023-03-23T10:02:18;99445.72;;;19.83;45.70
78223;BME280;67497;53.058;21.618;2023-03-23T10:04:26;99460.59;;;19.88;45.75
78223;BME280;67497;53.058;21.618;2023-03-23T10:06:28;99455.03;;;19.88;45.79
78223;BME280;67497;53.058;21.618;2023-03-23T10:08:32;99462.38;;;19.83;45.77
78223;BME280;67497;53.058;21.618;2023-03-23T10:13:52;99449.94;;;19.85;45.99
78223;BME280;67497;53.058;21.618;2023-03-23T10:15:56;99451.28;;;19.83;46.24
78223;BME280;67497;53.058;21.618;2023-03-23T10:18:01;99446.19;;;19.80;45.81
78223;BME280;67497;53.058;21.618;2023-03-23T10:22:20;99443.25;;;19.75;46.24
78223;BME280;67497;53.058;21.618;2023-03-23T10:24:52;99434.53;;;19.71;45.65
78223;BME280;67497;53.058;21.618;2023-03-23T10:27:19;99435.84;;;19.68;45.38
78223;BME280;67497;53.058;21.618;2023-03-23T10:29:28;99433.53;;;19.65;45.11
78223;BME280;67497;53.058;21.618;2023-03-23T10:31:36;99439.59;;;19.62;45.28
78223;BME280;67497;53.058;21.618;2023-03-23T10:33:43;99430.13;;;19.63;44.99
78223;BME280;67497;53.058;21.618;2023-03-23T10:36:03;99425.19;;;19.65;45.19
78223;BME280;67497;53.058;21.618;2023-03-23T10:38:16;99430.28;;;19.68;45.11
78223;BME280;67497;53.058;21.618;2023-03-23T10:40:23;99415.94;;;19.72;45.37
78223;BME280;67497;53.058;21.618;2023-03-23T10:42:33;99424.88;;;19.74;45.48
78223;BME280;67497;53.058;21.618;2023-03-23T10:44:34;99418.50;;;19.73;45.32
78223;BME280;67497;53.058;21.618;2023-03-23T10:48:58;99424.53;;;19.82;45.65
78223;BME280;67497;53.058;21.618;2023-03-23T10:51:02;99431.94;;;19.88;45.39
78223;BME280;67497;53.058;21.618;2023-03-23T10:53:33;99432.56;;;19.90;45.88
78223;BME280;67497;53.058;21.618;2023-03-23T10:55:39;99431.28;;;19.92;46.28
78223;BME280;67497;53.058;21.618;2023-03-23T10:57:45;99418.81;;;19.95;46.54
78223;BME280;67497;53.058;21.618;2023-03-23T10:59:46;99395.94;;;19.93;47.07
78223;BME280;67497;53.058;21.618;2023-03-23T11:01:50;99397.66;;;19.94;47.44
78223;BME280;67497;53.058;21.618;2023-03-23T11:03:53;99395.94;;;19.93;47.60
78223;BME280;67497;53.058;21.618;2023-03-23T11:05:59;99394.41;;;19.97;47.67
78223;BME280;67497;53.058;21.618;2023-03-23T11:08:01;99381.59;;;19.96;47.68
78223;BME280;67497;53.058;21.618;2023-03-23T11:10:22;99391.38;;;19.98;47.53
78223;BME280;67497;53.058;21.618;2023-03-23T11:12:24;99376.03;;;19.96;47.76
78223;BME280;67497;53.058;21.618;2023-03-23T11:14:27;99377.47;;;19.98;47.37
78223;BME280;67497;53.058;21.618;2023-03-23T11:16:31;99379.41;;;19.98;47.06
78223;BME280;67497;53.058;21.618;2023-03-23T11:18:41;99383.03;;;19.98;46.58
78223;BME280;67497;53.058;21.618;2023-03-23T11:20:44;99366.75;;;20.02;46.32